createdAt,value
2023-02-22T01:11:54.586Z,140.8
2023-02-22T01:36:11.052Z,159.3
2023-02-22T01:59:55.944Z,146.2
2023-02-22T02:36:09.955Z,108.1
2023-02-22T02:42:00.698Z,106.2
2023-02-22T02:47:50.717Z,128.6
2023-02-22T02:53:40.957Z,149
2023-02-22T02:59:31.588Z,95.7
2023-02-22T03:05:22.628Z,90
2023-02-22T03:11:12.969Z,90
2023-02-22T03:17:02.968Z,87.2
2023-02-22T03:22:52.415Z,77.3
2023-02-22T03:28:42.157Z,90.8
2023-02-22T03:34:32.326Z,72.2
2023-02-22T03:40:22.451Z,62.5
2023-02-22T03:46:12.642Z,58.7
2023-02-22T03:52:03.570Z,58
2023-02-22T03:57:53.680Z,57.9
2023-02-22T04:03:44.473Z,53.3
2023-02-22T04:09:34.835Z,56.1
2023-02-22T04:15:24.968Z,53.8
2023-02-22T04:21:15.896Z,56.9
2023-02-22T04:27:05.418Z,51.1
2023-02-22T04:32:54.376Z,52.3
2023-02-22T04:38:43.070Z,51.1
2023-02-22T04:44:31.723Z,51.1
2023-02-22T04:50:19.995Z,50.8
2023-02-22T04:56:09.837Z,49.3
2023-02-22T05:02:00.653Z,46.7
2023-02-22T05:07:50.913Z,49.2
2023-02-22T05:13:39.702Z,44.9
2023-02-22T05:19:28.738Z,47.1
2023-02-22T05:25:22.605Z,46.7
2023-02-22T05:31:14.840Z,43.6
2023-02-22T05:37:06.988Z,55.4
2023-02-22T05:42:58.644Z,61.1
2023-02-22T05:48:53.557Z,73
2023-02-22T05:54:47.116Z,77.5
2023-02-22T06:00:38.256Z,73.4
2023-02-22T06:06:30.801Z,67.7
2023-02-22T06:12:23.574Z,67.1
2023-02-22T06:18:14.321Z,68
2023-02-22T06:24:06.061Z,60.6
2023-02-22T06:29:58.154Z,57.5
2023-02-22T06:35:51.757Z,61.2
2023-02-22T06:41:42.708Z,58.3
2023-02-22T06:47:34.990Z,58.2
2023-02-22T06:53:26.607Z,60.8
2023-02-22T06:59:19.639Z,55.9
2023-02-22T07:05:11.343Z,51.4
2023-02-22T07:11:05.244Z,53.9
2023-02-22T07:16:53.853Z,57.6
2023-02-22T07:22:44.540Z,59
2023-02-22T07:28:34.431Z,56.6
2023-02-22T07:34:24.378Z,56.7
2023-02-22T07:40:14.410Z,54.9
2023-02-22T07:46:06.172Z,60.9
2023-02-22T07:51:56.148Z,61.5
2023-02-22T07:57:45.593Z,62.2
2023-02-22T08:03:37.553Z,62.5
2023-02-22T08:09:28.900Z,63
2023-02-22T08:15:18.038Z,66.5
2023-02-22T08:21:08.567Z,66.3
2023-02-22T08:26:59.520Z,63.4
2023-02-22T08:32:50.758Z,59.2
2023-02-22T08:38:41.653Z,59.4
2023-02-22T08:44:32.696Z,60.7
2023-02-22T08:50:22.984Z,52.1
2023-02-22T08:56:13.621Z,57.3
2023-02-22T09:02:03.487Z,50.6
2023-02-22T09:07:54.307Z,53.1
2023-02-22T09:13:45.632Z,53.7
2023-02-22T09:19:35.944Z,49.3
2023-02-22T09:25:30.758Z,48.7
2023-02-22T09:31:27.496Z,39
2023-02-22T09:37:19.912Z,39.1
2023-02-22T09:43:12.967Z,40.1
2023-02-22T09:49:05.709Z,38.4
2023-02-22T09:55:00.636Z,37.2
2023-02-22T10:00:53.773Z,37.3
2023-02-22T10:06:47.034Z,36.2
2023-02-22T10:12:37.229Z,36.1
2023-02-22T10:18:28.742Z,38
2023-02-22T10:24:21.339Z,37
2023-02-22T10:30:32.044Z,36.4
2023-02-22T10:36:23.492Z,38.5
2023-02-22T10:42:15.418Z,37.7
2023-02-22T10:48:06.985Z,35.8
2023-02-22T10:54:07.980Z,37.9
2023-02-22T10:59:57.995Z,29.2
2023-02-22T11:05:49.701Z,31.7
2023-02-22T11:11:41.775Z,27.1
2023-02-22T11:17:36.229Z,23.6
2023-02-22T11:23:37.675Z,26.9
2023-02-22T11:29:32.922Z,23.6
2023-02-22T11:35:35.124Z,21.7
2023-02-22T11:41:30.458Z,22.8
2023-02-22T11:47:24.593Z,20.4
2023-02-22T11:53:20.858Z,20.8
2023-02-22T12:05:19.289Z,24.6
2023-02-22T12:11:10.758Z,21.8
2023-02-22T12:17:03.701Z,22.8
2023-02-22T12:22:58.517Z,23.3
2023-02-22T12:29:22.738Z,25
2023-02-22T12:42:14.960Z,25.9
2023-02-22T13:06:08.262Z,27.9
2023-02-22T13:18:41.492Z,28
2023-02-22T13:31:24.059Z,30.1
2023-02-22T13:37:24.337Z,29.1
2023-02-22T13:43:31.825Z,28.9
2023-02-22T13:49:59.988Z,28.1
2023-02-22T13:56:00.082Z,26.8
2023-02-22T14:02:07.374Z,32.4
2023-02-22T14:08:02.504Z,27.6
2023-02-22T14:14:01.257Z,29.1
2023-02-22T14:19:55.099Z,28.7
2023-02-22T14:25:47.965Z,27.5
2023-02-22T14:31:43.706Z,28.9
2023-02-22T14:37:46.104Z,30.4
2023-02-22T14:43:43.912Z,30
2023-02-22T14:49:40.730Z,30.3
2023-02-22T14:55:45.685Z,27.9
2023-02-22T15:02:14.200Z,29.1
2023-02-22T15:08:24.771Z,28.6
2023-02-22T15:14:39.944Z,30.5
2023-02-22T15:21:01.424Z,29.1
2023-02-22T15:28:06.087Z,27.6
2023-02-22T15:33:56.389Z,28.5
2023-02-22T15:39:51.896Z,28.5
2023-02-22T15:52:36.512Z,29.7
2023-02-22T15:59:09.456Z,29.4
2023-02-22T16:05:46.878Z,29.2
2023-02-22T16:18:09.964Z,30.6
2023-02-22T16:24:31.927Z,32.5
2023-02-22T16:30:34.854Z,28.2
2023-02-22T16:36:42.772Z,28.1
2023-02-22T16:48:26.869Z,30.4
2023-02-22T16:54:17.113Z,32.8
2023-02-22T17:00:07.973Z,34.4
2023-02-22T17:05:59.582Z,31.3
2023-02-22T17:11:50.478Z,34.5
2023-02-22T17:17:42.639Z,36.6
2023-02-22T17:23:33.555Z,35.2
2023-02-22T17:29:25.025Z,32.9
2023-02-22T17:35:16.938Z,31.2
2023-02-22T17:41:08.138Z,32.3
2023-02-22T17:47:05.020Z,31
2023-02-22T17:53:11.068Z,30.3
2023-02-22T17:59:15.756Z,29.1
2023-02-22T18:05:37.216Z,31.6
2023-02-22T18:11:35.025Z,30.8
2023-02-22T18:17:34.713Z,31
2023-02-22T18:23:38.898Z,34.9
2023-02-22T18:55:53.694Z,35.4
2023-02-22T19:01:41.963Z,37.2
2023-02-22T19:07:33.004Z,35.6
2023-02-22T19:13:28.491Z,40.9
2023-02-22T19:20:01.383Z,38.2
2023-02-22T19:26:19.008Z,40.2
2023-02-22T19:32:11.625Z,41.4
2023-02-22T19:44:12.623Z,39
2023-02-22T19:50:05.934Z,40.2
2023-02-22T19:56:08.417Z,42.4
2023-02-22T20:02:01.929Z,39.4
2023-02-22T20:07:55.166Z,40.9
2023-02-22T20:14:05.245Z,45.3
2023-02-22T20:20:07.088Z,43.2
2023-02-22T20:26:03.893Z,42.3
2023-02-22T20:32:07.834Z,43.4
2023-02-22T20:38:07.361Z,43.4
2023-02-22T20:44:27.788Z,43
2023-02-22T20:56:36.997Z,41.3
2023-02-22T21:02:29.063Z,42.8
2023-02-22T21:08:23.133Z,41.8
2023-02-22T21:14:14.423Z,50.2
2023-02-22T21:26:14.992Z,60.3
2023-02-22T21:32:06.938Z,55.2
2023-02-22T21:38:05.549Z,55
2023-02-22T21:44:00.422Z,56.1
2023-02-22T21:50:05.864Z,54.7
2023-02-22T21:56:05.871Z,56.2
2023-02-22T22:02:06.227Z,60.9
2023-02-22T22:07:56.704Z,63.1
2023-02-22T22:13:48.190Z,62.5
2023-02-22T22:19:45.525Z,60.9
2023-02-22T22:25:38.409Z,63.7
2023-02-22T22:31:38.459Z,69.4
2023-02-22T22:37:30.419Z,66.4
2023-02-22T22:43:25.520Z,69.8
2023-02-22T23:02:04.264Z,65.7
2023-02-22T23:08:13.765Z,64.1
2023-02-22T23:14:15.711Z,63.7
2023-02-22T23:20:27.869Z,59.7
2023-02-22T23:33:26.103Z,64.7
2023-02-22T23:39:53.561Z,63.7
2023-02-22T23:52:03.889Z,63.2
2023-02-22T23:58:30.079Z,65.8
